メインページ
METAR-TAF:

METAR-TAF

空港 :

オスロ, ノルウェー

オスロ空港

緯度: 60-12N, 経度: 011-05E, 海抜: 208m

現時点の気象観測

当レポートは16分前の04:50(UTC)に作成
東/北東の風 6kt、から東/南東の間で変化する
気温 6°C
湿度 75%
気圧 1020 hPa
視程10km以上
高度1700ftの曇り

METAR: ENGM 210450Z 06006KT 010V110 9999 OVC017 06/02 Q1020 NOSIG

時間: 07:06 (05:06 UTC)

予報

予報は21日の 00時(UTC)から 21日の 24時(UTC)まで有効
北/北東の風 7kt
視程10km以上
高度1000ftの雲はほとんどない
高度2000ftの千切れ雲あり
確率 30% :
21日の 00時(UTC)から 21日の 06時(UTC)まで一時的に
視程: 4000m
高度800ftの千切れ雲あり
雨, 霧雨, 靄

TAF: ENGM 2100/2124 03007KT 9999 FEW010 BKN020 PROB30 TEMPO 2100/2106 4000 RADZ BR BKN008

4,000以上の空港の気象観測と天気予報(METAR報とTAF報)

利用可能な観測所は地図上に黄色い丸と赤い丸で示す。

丸の上にカーソルを重ねると観測所名を参照できる。

次にクリックすると気象観測と天気予報を参照できる。

マップの切り替え:黒色「×」印の緑ボタンをクリックして拡大、「-」印の緑ボタンをクリックして縮小、緑色の三角印をクリックして隣りの地図に切り替え


METAR-TAF: